createdAt,value
2023-01-18T00:00:40.377Z,11.34
2023-01-18T00:03:11.216Z,11.37
2023-01-18T00:05:41.173Z,11.29
2023-01-18T00:08:12.362Z,11.13
2023-01-18T00:10:39.571Z,11.23
2023-01-18T00:13:06.908Z,10.68
2023-01-18T00:15:35.046Z,11.04
2023-01-18T00:18:02.478Z,10.80
2023-01-18T00:20:29.921Z,10.99
2023-01-18T00:22:59.200Z,10.83
2023-01-18T00:25:26.657Z,10.98
2023-01-18T00:27:54.129Z,10.71
2023-01-18T00:30:22.530Z,10.34
2023-01-18T00:32:50.465Z,10.18
2023-01-18T00:35:22.012Z,10.59
2023-01-18T00:37:50.220Z,10.68
2023-01-18T00:40:17.748Z,10.70
2023-01-18T00:43:03.769Z,10.93
2023-01-18T00:45:31.249Z,10.97
2023-01-18T00:47:58.515Z,11.01
2023-01-18T00:50:25.701Z,11.07
2023-01-18T00:52:57.126Z,10.87
2023-01-18T00:55:24.593Z,10.55
2023-01-18T00:57:51.835Z,9.99
2023-01-18T01:00:19.295Z,10.28
2023-01-18T01:02:46.554Z,9.99
2023-01-18T01:05:42.262Z,9.63
2023-01-18T01:08:17.382Z,9.02
2023-01-18T01:10:46.138Z,9.17
2023-01-18T01:13:32.864Z,9.29
2023-01-18T01:16:22.883Z,10.08
2023-01-18T01:19:09.120Z,10.42
2023-01-18T01:21:54.771Z,10.16
2023-01-18T01:24:41.074Z,10.83
2023-01-18T01:27:08.277Z,11.17
2023-01-18T01:29:35.699Z,11.18
2023-01-18T01:32:03.552Z,11.18
2023-01-18T01:34:30.733Z,11.36
2023-01-18T01:36:58.160Z,11.35
2023-01-18T01:39:25.353Z,11.03
2023-01-18T01:41:52.535Z,11.06
2023-01-18T01:44:28.248Z,10.90
2023-01-18T01:47:04.445Z,10.54
2023-01-18T01:49:33.823Z,10.09
2023-01-18T01:52:05.460Z,10.13
2023-01-18T01:54:39.483Z,10.63
2023-01-18T01:57:11.105Z,10.68
2023-01-18T01:59:39.749Z,9.60
2023-01-18T02:02:07.344Z,9.79
2023-01-18T02:04:34.970Z,10.19
2023-01-18T02:07:02.237Z,10.22
2023-01-18T02:09:29.399Z,10.61
2023-01-18T02:11:56.894Z,10.51
2023-01-18T02:14:25.504Z,10.44
2023-01-18T02:16:56.131Z,9.99
2023-01-18T02:19:48.247Z,9.45
2023-01-18T02:22:34.293Z,9.54
2023-01-18T02:25:01.684Z,7.99
2023-01-18T02:27:33.868Z,7.68
2023-01-18T02:30:09.306Z,7.74
2023-01-18T02:32:56.208Z,7.94
2023-01-18T02:35:30.234Z,7.62
2023-01-18T02:38:05.729Z,7.54
2023-01-18T02:40:39.099Z,8.50
2023-01-18T02:43:25.795Z,8.57
2023-01-18T02:46:11.716Z,8.99
2023-01-18T02:48:40.214Z,9.09
2023-01-18T02:51:07.612Z,8.50
2023-01-18T02:53:37.332Z,8.54
2023-01-18T02:56:07.573Z,8.04
2023-01-18T02:58:35.632Z,8.70
2023-01-18T03:01:04.819Z,8.91
2023-01-18T03:03:32.647Z,9.40
2023-01-18T03:06:01.701Z,9.32
2023-01-18T03:08:32.500Z,9.88
2023-01-18T03:11:01.195Z,9.89
2023-01-18T03:13:30.928Z,10.20
2023-01-18T03:16:02.040Z,10.06
2023-01-18T03:18:29.618Z,10.39
2023-01-18T03:20:56.785Z,10.49
2023-01-18T03:23:38.550Z,10.85
2023-01-18T03:26:07.151Z,10.78
2023-01-18T03:28:56.196Z,10.56
2023-01-18T03:31:52.110Z,10.87
2023-01-18T03:34:26.311Z,11.10
2023-01-18T03:36:54.096Z,10.94
2023-01-18T03:39:24.469Z,11.10
2023-01-18T03:41:52.527Z,11.30
2023-01-18T03:44:25.641Z,11.61
2023-01-18T03:46:52.815Z,11.64
2023-01-18T03:49:20.283Z,11.60
2023-01-18T03:51:50.099Z,11.31
2023-01-18T03:54:22.844Z,11.45
2023-01-18T03:57:02.943Z,11.41
2023-01-18T03:59:31.888Z,11.41
2023-01-18T04:01:59.441Z,10.86
2023-01-18T04:04:27.031Z,11.48
2023-01-18T04:06:54.335Z,11.19
2023-01-18T04:09:21.466Z,11.00
2023-01-18T04:11:48.928Z,11.36
2023-01-18T04:14:16.097Z,11.63
2023-01-18T04:16:43.514Z,11.49
2023-01-18T04:19:11.324Z,11.59
2023-01-18T04:21:41.523Z,11.65
2023-01-18T04:24:08.926Z,11.38
2023-01-18T04:26:36.553Z,11.66
2023-01-18T04:29:04.045Z,11.77
2023-01-18T04:31:31.322Z,11.81
2023-01-18T04:33:58.899Z,11.64
2023-01-18T04:36:26.074Z,11.16
2023-01-18T04:38:53.975Z,11.57
2023-01-18T04:41:21.724Z,11.23
2023-01-18T04:43:48.856Z,11.39
2023-01-18T04:46:16.151Z,11.70
2023-01-18T04:48:43.707Z,11.64
2023-01-18T04:51:11.736Z,11.76
2023-01-18T04:53:39.857Z,11.87
2023-01-18T04:56:07.390Z,11.88
2023-01-18T04:58:34.803Z,11.83
2023-01-18T05:01:02.766Z,11.86
2023-01-18T05:03:30.381Z,11.86
2023-01-18T05:05:57.631Z,11.69
2023-01-18T05:08:24.801Z,11.72
2023-01-18T05:10:52.273Z,11.59
2023-01-18T05:13:19.424Z,11.12
2023-01-18T05:15:46.725Z,11.11
2023-01-18T05:18:14.241Z,11.40
2023-01-18T05:20:41.595Z,11.13
2023-01-18T05:23:10.545Z,11.21
2023-01-18T05:25:39.186Z,11.24
2023-01-18T05:28:07.265Z,11.20
2023-01-18T05:30:35.025Z,11.17
2023-01-18T05:33:02.710Z,10.91
2023-01-18T05:35:29.964Z,10.71
2023-01-18T05:37:57.122Z,10.98
2023-01-18T05:40:24.575Z,11.00
2023-01-18T05:42:51.767Z,10.75
2023-01-18T05:45:19.965Z,10.77
2023-01-18T05:47:47.425Z,10.53
2023-01-18T05:50:14.665Z,10.37
2023-01-18T05:52:42.170Z,9.97
2023-01-18T05:55:09.591Z,10.20
2023-01-18T05:57:36.769Z,10.53
2023-01-18T06:00:05.024Z,10.42
2023-01-18T06:02:38.562Z,10.56
2023-01-18T06:05:06.240Z,10.47
2023-01-18T06:07:33.441Z,10.57
2023-01-18T06:10:00.665Z,10.92
2023-01-18T06:12:28.171Z,11.13
2023-01-18T06:14:55.543Z,11.07
2023-01-18T06:17:22.765Z,11.01
2023-01-18T06:19:50.214Z,11.01
2023-01-18T06:22:17.369Z,11.05
2023-01-18T06:24:44.578Z,10.88
2023-01-18T06:27:11.990Z,10.88
2023-01-18T06:29:39.176Z,10.82
2023-01-18T06:32:06.382Z,10.95
2023-01-18T06:34:33.958Z,11.06
2023-01-18T06:37:01.154Z,10.84
2023-01-18T06:39:28.460Z,10.99
2023-01-18T06:41:55.959Z,11.16
2023-01-18T06:44:23.099Z,10.81
2023-01-18T06:46:50.306Z,11.05
2023-01-18T06:49:17.818Z,10.93
2023-01-18T06:51:45.073Z,10.84
2023-01-18T06:54:12.355Z,10.33
2023-01-18T06:56:40.035Z,10.37
2023-01-18T06:59:08.535Z,10.36
2023-01-18T07:01:35.910Z,10.29
2023-01-18T07:04:03.584Z,10.35
2023-01-18T07:06:32.197Z,10.32
2023-01-18T07:08:59.377Z,10.37
2023-01-18T07:11:26.923Z,10.24
2023-01-18T07:13:54.166Z,10.14
2023-01-18T07:16:21.449Z,10.24
2023-01-18T07:18:49.514Z,10.30
2023-01-18T07:21:17.353Z,10.38
2023-01-18T07:23:44.560Z,10.04
2023-01-18T07:26:17.061Z,10.32
2023-01-18T07:28:44.980Z,9.91
2023-01-18T07:31:12.612Z,10.00
2023-01-18T07:33:39.790Z,10.08
2023-01-18T07:36:07.478Z,9.79
2023-01-18T07:38:35.104Z,10.12
2023-01-18T07:41:03.438Z,10.25
2023-01-18T07:43:31.142Z,10.38
2023-01-18T07:45:58.870Z,10.45
2023-01-18T07:48:26.412Z,10.75
2023-01-18T07:50:54.875Z,10.77
2023-01-18T07:53:22.767Z,10.61
2023-01-18T07:55:50.241Z,10.58
2023-01-18T07:58:17.997Z,10.44
2023-01-18T08:00:45.719Z,10.49
2023-01-18T08:03:16.670Z,10.59
2023-01-18T08:05:44.469Z,10.87
2023-01-18T08:08:17.240Z,10.88
2023-01-18T08:10:44.890Z,10.99
2023-01-18T08:13:12.162Z,11.04
2023-01-18T08:15:40.622Z,10.85
2023-01-18T08:18:08.412Z,10.70
2023-01-18T08:20:35.619Z,10.41
2023-01-18T08:23:03.717Z,10.76
2023-01-18T08:25:33.391Z,10.90
2023-01-18T08:28:01.369Z,10.72
2023-01-18T08:30:30.264Z,10.16
2023-01-18T08:32:58.877Z,10.05
2023-01-18T08:35:30.148Z,10.12
2023-01-18T08:37:58.257Z,10.50
2023-01-18T08:40:26.021Z,10.69
2023-01-18T08:43:00.378Z,10.75
2023-01-18T08:45:28.029Z,11.03
2023-01-18T08:47:58.703Z,11.12
2023-01-18T08:50:25.981Z,11.55
2023-01-18T08:52:53.766Z,11.68
2023-01-18T08:55:21.659Z,11.65
2023-01-18T08:57:49.205Z,11.93
2023-01-18T09:00:17.255Z,12.09
2023-01-18T09:02:44.511Z,12.03
2023-01-18T09:05:11.775Z,11.61
2023-01-18T09:07:39.249Z,11.92
2023-01-18T09:10:08.965Z,11.47
2023-01-18T09:12:36.201Z,11.52
2023-01-18T09:15:03.891Z,11.69
2023-01-18T09:17:31.101Z,12.16
2023-01-18T09:19:59.308Z,11.78
2023-01-18T09:22:26.782Z,10.65
2023-01-18T09:24:54.203Z,10.19
2023-01-18T09:27:21.440Z,9.49
2023-01-18T09:29:52.368Z,9.82
2023-01-18T09:32:20.054Z,9.75
2023-01-18T09:34:50.676Z,9.98
2023-01-18T09:37:19.073Z,9.55
2023-01-18T09:39:51.840Z,9.08
2023-01-18T09:42:24.259Z,9.30
2023-01-18T09:44:52.189Z,8.85
2023-01-18T09:47:23.863Z,8.37
2023-01-18T09:49:57.893Z,8.36
2023-01-18T09:52:28.193Z,8.35
2023-01-18T09:55:01.521Z,8.34
2023-01-18T09:57:44.933Z,8.47
2023-01-18T10:00:24.306Z,8.50
2023-01-18T10:02:53.557Z,8.73
2023-01-18T10:05:22.136Z,8.62
2023-01-18T10:08:02.371Z,9.38
2023-01-18T10:10:35.903Z,9.29
2023-01-18T10:13:23.386Z,8.57
2023-01-18T10:15:50.963Z,9.60
2023-01-18T10:18:18.558Z,10.23
2023-01-18T10:20:47.611Z,10.86
2023-01-18T10:23:30.232Z,11.54
2023-01-18T10:26:07.726Z,12.07
2023-01-18T10:28:53.300Z,12.08
2023-01-18T10:31:26.816Z,13.19
2023-01-18T10:33:55.464Z,14.43
2023-01-18T10:36:24.866Z,15.17
2023-01-18T10:38:52.282Z,16.19
2023-01-18T10:41:20.560Z,17.11
2023-01-18T10:43:47.846Z,17.82
2023-01-18T10:46:16.014Z,16.98
2023-01-18T10:48:45.529Z,17.87
2023-01-18T10:51:24.536Z,16.81
2023-01-18T10:53:51.996Z,16.03
2023-01-18T10:56:20.438Z,15.14
2023-01-18T10:58:50.755Z,14.00
2023-01-18T11:01:22.587Z,13.66
2023-01-18T11:03:50.809Z,12.27
2023-01-18T11:06:20.528Z,12.65
2023-01-18T11:08:48.890Z,11.57
2023-01-18T11:11:48.317Z,11.88
2023-01-18T11:14:31.648Z,11.88
2023-01-18T11:17:11.404Z,12.66
2023-01-18T11:19:39.248Z,12.33
2023-01-18T11:22:12.937Z,11.79
2023-01-18T11:24:40.388Z,12.01
2023-01-18T11:27:11.904Z,11.42
2023-01-18T11:29:43.117Z,11.54
2023-01-18T11:32:17.275Z,11.21
2023-01-18T11:34:49.202Z,11.30
2023-01-18T11:37:35.821Z,11.50
2023-01-18T11:40:23.921Z,11.62
2023-01-18T11:42:51.423Z,10.96
2023-01-18T11:45:31.031Z,11.16
2023-01-18T11:48:13.200Z,10.99
2023-01-18T11:51:07.356Z,10.92
2023-01-18T11:53:41.588Z,10.58
2023-01-18T11:56:27.727Z,10.62
2023-01-18T11:58:55.384Z,11.00
2023-01-18T12:01:37.856Z,10.90
2023-01-18T12:04:14.316Z,10.76
2023-01-18T12:06:45.985Z,10.55
2023-01-18T12:09:23.252Z,10.67
2023-01-18T12:11:53.143Z,10.77
2023-01-18T12:14:23.405Z,10.29
2023-01-18T12:17:01.696Z,11.39
2023-01-18T12:19:35.324Z,11.46
2023-01-18T12:22:32.067Z,10.24
2023-01-18T12:25:18.506Z,10.14
2023-01-18T12:27:51.468Z,10.79
2023-01-18T12:30:22.455Z,11.45
2023-01-18T12:32:56.192Z,11.61
2023-01-18T12:35:34.971Z,11.61
2023-01-18T12:38:05.406Z,11.30
2023-01-18T12:40:48.126Z,11.47
2023-01-18T12:43:27.659Z,11.39
2023-01-18T12:46:15.401Z,11.42
2023-01-18T12:48:50.465Z,11.66
2023-01-18T12:51:18.902Z,12.20
2023-01-18T12:53:47.773Z,12.07
2023-01-18T12:56:16.813Z,12.12
2023-01-18T12:58:44.272Z,12.14
2023-01-18T13:01:13.099Z,12.52
2023-01-18T13:03:43.968Z,12.35
2023-01-18T13:06:11.544Z,12.66
2023-01-18T13:09:08.022Z,12.48
2023-01-18T13:11:41.577Z,12.33
2023-01-18T13:14:11.776Z,12.61
2023-01-18T13:16:45.246Z,12.75
2023-01-18T13:19:13.728Z,12.86
2023-01-18T13:21:54.442Z,12.97
2023-01-18T13:24:40.435Z,12.49
2023-01-18T13:27:11.636Z,11.74
2023-01-18T13:29:39.311Z,11.41
2023-01-18T13:32:27.992Z,10.90
2023-01-18T13:35:12.912Z,11.46
2023-01-18T13:37:48.481Z,11.53
2023-01-18T13:40:21.989Z,11.49
2023-01-18T13:42:50.459Z,11.13
2023-01-18T13:45:19.255Z,11.40
2023-01-18T13:47:51.107Z,10.44
2023-01-18T13:50:31.363Z,11.55
2023-01-18T13:53:13.725Z,10.35
2023-01-18T13:55:48.729Z,11.22
2023-01-18T13:58:17.656Z,11.23
2023-01-18T14:00:48.637Z,11.22
2023-01-18T14:03:17.261Z,11.62
2023-01-18T14:05:45.037Z,10.27
2023-01-18T14:08:19.055Z,10.76
2023-01-18T14:10:47.197Z,9.93
2023-01-18T14:13:15.442Z,11.04
2023-01-18T14:15:42.614Z,10.57
2023-01-18T14:18:25.263Z,10.67
2023-01-18T14:21:04.679Z,10.49
2023-01-18T14:23:37.885Z,10.27
2023-01-18T14:26:06.378Z,10.32
2023-01-18T14:28:43.649Z,10.01
2023-01-18T14:31:15.415Z,10.47
2023-01-18T14:33:42.966Z,10.02
2023-01-18T14:36:19.567Z,11.65
2023-01-18T14:38:47.015Z,11.98
2023-01-18T14:41:16.935Z,12.07
2023-01-18T14:43:44.666Z,11.59
2023-01-18T14:46:16.222Z,12.48
2023-01-18T14:48:54.294Z,12.06
2023-01-18T14:51:22.690Z,12.00
2023-01-18T14:53:52.855Z,12.53
2023-01-18T14:56:21.296Z,12.70
2023-01-18T14:58:51.955Z,12.73
2023-01-18T15:01:31.815Z,12.48
2023-01-18T15:04:00.633Z,12.97
2023-01-18T15:06:36.814Z,13.17
2023-01-18T15:09:05.432Z,13.16
2023-01-18T15:11:32.852Z,13.12
2023-01-18T15:14:00.161Z,13.09
2023-01-18T15:16:28.801Z,13.16
2023-01-18T15:18:56.232Z,12.83
2023-01-18T15:21:28.378Z,12.94
2023-01-18T15:23:58.441Z,12.82
2023-01-18T15:26:45.232Z,11.91
2023-01-18T15:29:13.719Z,12.59
2023-01-18T15:31:48.615Z,12.90
2023-01-18T15:34:16.374Z,12.65
2023-01-18T15:36:44.599Z,13.05
2023-01-18T15:39:14.916Z,13.03
2023-01-18T15:41:42.514Z,12.93
2023-01-18T15:44:39.058Z,11.85
2023-01-18T15:47:16.792Z,11.76
2023-01-18T15:49:45.063Z,12.24
2023-01-18T15:52:12.517Z,12.78
2023-01-18T15:54:40.160Z,12.92
2023-01-18T15:57:14.411Z,13.11
2023-01-18T15:59:42.214Z,13.19
2023-01-18T16:02:09.573Z,12.95
2023-01-18T16:04:37.391Z,12.95
2023-01-18T16:07:26.070Z,13.12
2023-01-18T16:10:12.931Z,13.13
2023-01-18T16:12:46.698Z,13.24
2023-01-18T16:15:26.864Z,13.19
2023-01-18T16:18:03.709Z,13.15
2023-01-18T16:20:31.519Z,13.32
2023-01-18T16:23:01.380Z,13.38
2023-01-18T16:25:28.850Z,13.37
2023-01-18T16:27:57.328Z,13.29
2023-01-18T16:30:33.332Z,13.12
2023-01-18T16:33:27.385Z,13.40
2023-01-18T16:35:54.729Z,13.35
2023-01-18T16:38:22.323Z,13.38
2023-01-18T16:40:49.862Z,13.47
2023-01-18T16:43:24.634Z,13.55
2023-01-18T16:45:52.762Z,13.53
2023-01-18T16:48:21.616Z,13.35
2023-01-18T16:50:49.280Z,13.48
2023-01-18T16:53:17.558Z,13.20
2023-01-18T16:55:45.003Z,13.23
2023-01-18T16:58:12.556Z,13.38
2023-01-18T17:00:58.758Z,13.40
2023-01-18T17:03:26.126Z,13.42
2023-01-18T17:05:53.762Z,13.38
2023-01-18T17:08:21.126Z,12.85
2023-01-18T17:10:49.281Z,12.75
2023-01-18T17:13:16.766Z,13.13
2023-01-18T17:15:45.514Z,12.67
2023-01-18T17:18:17.722Z,13.02
2023-01-18T17:20:45.268Z,13.19
2023-01-18T17:23:12.674Z,12.72
2023-01-18T17:25:40.148Z,13.02
2023-01-18T17:28:09.010Z,12.82
2023-01-18T17:30:37.091Z,12.89
2023-01-18T17:33:04.751Z,13.12
2023-01-18T17:35:32.334Z,12.79
2023-01-18T17:38:06.245Z,12.85
2023-01-18T17:40:43.405Z,12.28
2023-01-18T17:43:19.551Z,11.93
2023-01-18T17:45:59.842Z,12.65
2023-01-18T17:48:27.899Z,11.79
2023-01-18T17:50:55.581Z,12.25
2023-01-18T17:53:22.811Z,12.25
2023-01-18T17:55:50.104Z,11.68
2023-01-18T17:58:17.786Z,11.98
2023-01-18T18:00:45.042Z,12.50
2023-01-18T18:03:13.543Z,12.21
2023-01-18T18:05:40.818Z,12.08
2023-01-18T18:08:08.396Z,12.30
2023-01-18T18:10:36.044Z,11.67
2023-01-18T18:13:03.651Z,12.23
2023-01-18T18:15:31.643Z,12.20
2023-01-18T18:17:59.358Z,12.47
2023-01-18T18:20:27.039Z,11.49
2023-01-18T18:22:54.582Z,12.29
2023-01-18T18:25:22.318Z,12.76
2023-01-18T18:27:49.588Z,12.71
2023-01-18T18:30:17.712Z,11.87
2023-01-18T18:32:45.508Z,12.64
2023-01-18T18:35:24.230Z,12.64
2023-01-18T18:37:53.827Z,12.54
2023-01-18T18:40:22.034Z,12.78
2023-01-18T18:43:01.146Z,12.49
2023-01-18T18:45:31.496Z,12.56
2023-01-18T18:47:58.709Z,12.74
2023-01-18T18:50:26.008Z,12.27
2023-01-18T18:52:54.164Z,11.66
2023-01-18T18:55:21.570Z,12.03
2023-01-18T18:57:48.815Z,11.93
2023-01-18T19:00:17.036Z,12.02
2023-01-18T19:02:44.410Z,12.12
2023-01-18T19:05:12.313Z,12.02
2023-01-18T19:07:40.595Z,12.23
2023-01-18T19:10:08.345Z,12.47
2023-01-18T19:12:35.526Z,12.06
2023-01-18T19:15:03.229Z,11.95
2023-01-18T19:17:31.585Z,11.88
2023-01-18T19:19:59.468Z,11.70
2023-01-18T19:22:27.491Z,11.44
2023-01-18T19:24:54.878Z,11.50
2023-01-18T19:27:24.576Z,11.41
2023-01-18T19:29:53.433Z,11.48
2023-01-18T19:32:21.184Z,11.09
2023-01-18T19:34:48.573Z,11.01
2023-01-18T19:37:16.729Z,11.11
2023-01-18T19:39:44.229Z,10.99
2023-01-18T19:42:11.577Z,10.91
2023-01-18T19:44:39.207Z,10.89
2023-01-18T19:47:06.683Z,10.14
2023-01-18T19:49:34.020Z,10.91
2023-01-18T19:52:01.819Z,10.70
2023-01-18T19:54:29.236Z,10.99
2023-01-18T19:56:56.547Z,10.75
2023-01-18T19:59:24.008Z,10.94
2023-01-18T20:01:52.404Z,10.78
2023-01-18T20:04:20.282Z,10.68
2023-01-18T20:06:47.959Z,10.32
2023-01-18T20:09:19.823Z,10.70
2023-01-18T20:11:48.820Z,10.91
2023-01-18T20:14:16.256Z,10.88
2023-01-18T20:16:45.889Z,10.53
2023-01-18T20:19:14.496Z,10.46
2023-01-18T20:21:41.948Z,11.07
2023-01-18T20:24:09.406Z,10.94
2023-01-18T20:26:39.587Z,9.94
2023-01-18T20:29:08.175Z,10.48
2023-01-18T20:31:36.351Z,10.44
2023-01-18T20:34:04.419Z,10.58
2023-01-18T20:36:31.997Z,8.79
2023-01-18T20:38:59.389Z,9.36
2023-01-18T20:41:26.964Z,9.05
2023-01-18T20:43:54.230Z,8.43
2023-01-18T20:46:21.671Z,8.96
2023-01-18T20:48:49.643Z,9.20
2023-01-18T20:51:18.005Z,9.23
2023-01-18T20:53:45.392Z,9.23
2023-01-18T20:56:27.811Z,8.95
2023-01-18T20:58:55.849Z,9.32
2023-01-18T21:01:23.466Z,8.97
2023-01-18T21:03:54.022Z,9.02
2023-01-18T21:06:21.365Z,9.53
2023-01-18T21:08:51.286Z,9.35
2023-01-18T21:11:18.727Z,9.74
2023-01-18T21:13:46.067Z,9.90
2023-01-18T21:16:13.856Z,9.80
2023-01-18T21:18:41.152Z,9.76
2023-01-18T21:21:09.779Z,9.63
2023-01-18T21:23:40.245Z,9.18
2023-01-18T21:26:08.437Z,9.25
2023-01-18T21:28:35.919Z,9.17
2023-01-18T21:31:03.579Z,9.13
2023-01-18T21:33:31.686Z,8.85
2023-01-18T21:36:02.731Z,8.99
2023-01-18T21:38:30.169Z,9.17
2023-01-18T21:40:57.454Z,9.10
2023-01-18T21:43:43.312Z,9.46
2023-01-18T21:46:10.952Z,10.04
2023-01-18T21:48:38.227Z,9.56
2023-01-18T21:51:24.628Z,9.19
2023-01-18T21:54:10.699Z,9.74
2023-01-18T21:56:37.998Z,9.59
2023-01-18T21:59:05.413Z,8.68
2023-01-18T22:01:38.529Z,9.01
2023-01-18T22:04:25.775Z,9.23
2023-01-18T22:06:57.708Z,9.50
2023-01-18T22:09:26.015Z,9.81
2023-01-18T22:11:53.377Z,9.95
2023-01-18T22:14:20.568Z,9.61
2023-01-18T22:16:48.126Z,9.80
2023-01-18T22:19:15.486Z,9.30
2023-01-18T22:21:42.754Z,9.43
2023-01-18T22:24:11.487Z,9.30
2023-01-18T22:26:39.114Z,9.85
2023-01-18T22:29:06.304Z,9.96
2023-01-18T22:31:33.774Z,9.54
2023-01-18T22:34:01.036Z,9.04
2023-01-18T22:36:28.631Z,8.87
2023-01-18T22:38:56.304Z,9.09
2023-01-18T22:41:24.544Z,8.90
2023-01-18T22:43:51.718Z,8.87
2023-01-18T22:46:19.655Z,8.49
2023-01-18T22:48:47.183Z,8.65
2023-01-18T22:51:18.382Z,8.34
2023-01-18T22:53:45.878Z,8.23
2023-01-18T22:56:14.283Z,8.24
2023-01-18T22:58:41.496Z,8.18
2023-01-18T23:01:16.735Z,8.27
2023-01-18T23:03:44.641Z,7.84
2023-01-18T23:06:12.222Z,8.45
2023-01-18T23:08:42.476Z,8.48
2023-01-18T23:11:10.159Z,8.53
2023-01-18T23:13:38.448Z,8.45
2023-01-18T23:16:27.610Z,8.61
2023-01-18T23:18:55.063Z,8.63
2023-01-18T23:21:22.265Z,7.60
2023-01-18T23:23:49.661Z,7.92
2023-01-18T23:26:17.178Z,7.75
2023-01-18T23:28:44.381Z,7.60
2023-01-18T23:31:12.429Z,7.32
2023-01-18T23:33:40.054Z,7.89
2023-01-18T23:36:07.776Z,7.77
2023-01-18T23:38:53.297Z,7.82
2023-01-18T23:41:39.283Z,7.59
2023-01-18T23:44:25.201Z,7.83
2023-01-18T23:47:11.607Z,7.09
2023-01-18T23:49:57.362Z,7.29
2023-01-18T23:52:43.779Z,6.99
2023-01-18T23:55:10.976Z,7.43
2023-01-18T23:57:38.615Z,7.43
